createdAt,value
2022-11-15T00:01:19.869Z,95223.91
2022-11-15T00:03:26.589Z,95220.66
2022-11-15T00:05:28.250Z,95221.25
2022-11-15T00:07:53.914Z,95213.16
2022-11-15T00:09:51.506Z,95217.19
2022-11-15T00:11:53.562Z,95218.84
2022-11-15T00:13:58.980Z,95221.69
2022-11-15T00:16:02.219Z,95214.94
2022-11-15T00:18:04.832Z,95213.06
2022-11-15T00:20:06.984Z,95205.34
2022-11-15T00:22:08.614Z,95207.03
2022-11-15T00:24:10.464Z,95207.84
2022-11-15T00:26:16.107Z,95207.03
2022-11-15T00:28:17.692Z,95203.22
2022-11-15T00:30:19.469Z,95199.91
2022-11-15T00:32:21.052Z,95198.38
2022-11-15T00:34:22.677Z,95205.34
2022-11-15T00:36:24.370Z,95204.22
2022-11-15T00:38:26.023Z,95192.38
2022-11-15T00:40:27.676Z,95202.53
2022-11-15T00:42:32.500Z,95198.41
2022-11-15T00:44:34.058Z,95190.59
2022-11-15T00:46:35.663Z,95187.66
2022-11-15T00:48:37.786Z,95194.06
2022-11-15T00:50:39.495Z,95199.41
2022-11-15T00:52:41.179Z,95187.44
2022-11-15T00:54:42.790Z,95192.81
2022-11-15T00:56:44.498Z,95190.91
2022-11-15T00:58:46.109Z,95193.38
2022-11-15T01:00:47.813Z,95186.25
2022-11-15T01:02:49.670Z,95185.88
2022-11-15T01:04:51.293Z,95182.44
2022-11-15T01:06:52.944Z,95182.44
2022-11-15T01:08:54.539Z,95179.97
2022-11-15T01:11:04.849Z,95182.94
2022-11-15T01:13:06.605Z,95181.03
2022-11-15T01:15:08.750Z,95181.19
2022-11-15T01:17:10.484Z,95181.31
2022-11-15T01:19:12.481Z,95186.50
2022-11-15T01:21:17.536Z,95191.84
2022-11-15T01:23:19.170Z,95186.75
2022-11-15T01:25:21.007Z,95184.84
2022-11-15T01:27:22.718Z,95184.84
2022-11-15T01:29:24.383Z,95184.50
2022-11-15T01:31:26.263Z,95177.72
2022-11-15T01:33:29.440Z,95186.59
2022-11-15T01:35:31.307Z,95179.28
2022-11-15T01:37:33.077Z,95177.84
2022-11-15T01:39:34.793Z,95182.88
2022-11-15T01:41:36.419Z,95180.13
2022-11-15T01:43:38.128Z,95173.28
2022-11-15T01:45:39.928Z,95177.03
2022-11-15T01:47:51.952Z,95182.13
2022-11-15T01:50:40.762Z,95177.03
2022-11-15T01:52:52.357Z,95178.72
2022-11-15T01:55:31.643Z,95176.44
2022-11-15T01:57:48.674Z,95173.63
2022-11-15T01:59:50.530Z,95174.56
2022-11-15T02:01:52.260Z,95173.50
2022-11-15T02:03:59.359Z,95174.22
2022-11-15T02:06:01.015Z,95174.56
2022-11-15T02:08:03.019Z,95176.59
2022-11-15T02:10:08.665Z,95169.50
2022-11-15T02:12:11.061Z,95171.84
2022-11-15T02:14:15.004Z,95168.78
2022-11-15T02:16:28.994Z,95172.19
2022-11-15T02:18:39.625Z,95177.06
2022-11-15T02:20:46.833Z,95169.34
2022-11-15T02:23:19.378Z,95172.22
2022-11-15T02:25:35.910Z,95169.00
2022-11-15T02:27:49.988Z,95175.16
2022-11-15T02:30:26.994Z,95168.66
2022-11-15T02:32:39.498Z,95168.28
2022-11-15T02:34:57.885Z,95165.84
2022-11-15T02:37:30.567Z,95165.47
2022-11-15T02:39:39.702Z,95165.22
2022-11-15T02:41:48.507Z,95172.44
2022-11-15T02:44:00.280Z,95165.84
2022-11-15T02:46:18.805Z,95147.41
2022-11-15T02:48:22.481Z,95163.13
2022-11-15T02:50:27.388Z,95153.31
2022-11-15T02:52:29.068Z,95151.75
2022-11-15T02:54:32.881Z,95153.28
2022-11-15T02:56:34.867Z,95151.13
2022-11-15T02:58:50.769Z,95161.19
2022-11-15T03:01:04.461Z,95164.38
2022-11-15T03:03:29.228Z,95166.03
2022-11-15T03:05:52.254Z,95167.31
2022-11-15T03:08:02.442Z,95163.88
2022-11-15T03:10:10.783Z,95167.44
2022-11-15T03:12:36.676Z,95161.16
2022-11-15T03:15:04.679Z,95157.22
2022-11-15T03:17:25.543Z,95155.81
2022-11-15T03:19:35.268Z,95153.66
2022-11-15T03:21:38.634Z,95147.03
2022-11-15T03:23:41.214Z,95155.09
2022-11-15T03:25:47.100Z,95151.53
2022-11-15T03:27:53.283Z,95153.66
2022-11-15T03:29:59.353Z,95153.84
2022-11-15T03:32:05.225Z,95150.06
2022-11-15T03:34:09.446Z,95141.97
2022-11-15T03:36:11.607Z,95143.66
2022-11-15T03:38:21.302Z,95144.25
2022-11-15T03:40:29.043Z,95140.25
2022-11-15T03:43:01.579Z,95138.25
2022-11-15T03:45:11.768Z,95134.66
2022-11-15T03:47:34.282Z,95130.75
2022-11-15T03:49:37.768Z,95132.97
2022-11-15T03:51:39.869Z,95132.84
2022-11-15T03:53:42.320Z,95129.88
2022-11-15T03:55:44.034Z,95130.00
2022-11-15T03:57:46.219Z,95129.56
2022-11-15T03:59:47.903Z,95130.88
2022-11-15T04:01:49.577Z,95125.09
2022-11-15T04:03:51.349Z,95124.91
2022-11-15T04:05:52.994Z,95127.94
2022-11-15T04:07:54.584Z,95117.16
2022-11-15T04:10:06.521Z,95127.94
2022-11-15T04:12:08.165Z,95126.41
2022-11-15T04:14:09.860Z,95116.97
2022-11-15T04:16:11.669Z,95117.91
2022-11-15T04:18:13.411Z,95116.81
2022-11-15T04:20:38.192Z,95112.47
2022-11-15T04:22:58.408Z,95115.75
2022-11-15T04:25:00.042Z,95108.06
2022-11-15T04:27:02.285Z,95106.56
2022-11-15T04:29:22.282Z,95111.63
2022-11-15T04:31:24.151Z,95116.00
2022-11-15T04:33:26.013Z,95111.56
2022-11-15T04:35:28.069Z,95115.56
2022-11-15T04:37:29.739Z,95111.22
2022-11-15T04:39:31.478Z,95117.94
2022-11-15T04:41:33.091Z,95115.97
2022-11-15T04:43:34.990Z,95122.69
2022-11-15T04:45:36.825Z,95118.91
2022-11-15T04:47:38.547Z,95120.56
2022-11-15T04:49:40.212Z,95127.63
2022-11-15T04:51:41.885Z,95125.41
2022-11-15T04:53:43.790Z,95121.97
2022-11-15T04:55:47.089Z,95122.34
2022-11-15T04:57:48.805Z,95123.88
2022-11-15T04:59:50.509Z,95123.75
2022-11-15T05:01:52.218Z,95124.59
2022-11-15T05:04:29.421Z,95122.09
2022-11-15T05:06:31.719Z,95120.44
2022-11-15T05:08:33.575Z,95122.00
2022-11-15T05:10:35.224Z,95122.81
2022-11-15T05:12:37.246Z,95122.84
2022-11-15T05:14:38.853Z,95123.03
2022-11-15T05:16:40.722Z,95126.22
2022-11-15T05:18:42.526Z,95122.56
2022-11-15T05:20:44.194Z,95117.34
2022-11-15T05:22:45.855Z,95127.06
2022-11-15T05:24:47.486Z,95122.34
2022-11-15T05:26:49.155Z,95117.38
2022-11-15T05:28:57.962Z,95113.81
2022-11-15T05:31:03.654Z,95113.47
2022-11-15T05:33:05.550Z,95113.09
2022-11-15T05:35:08.405Z,95107.41
2022-11-15T05:37:10.106Z,95110.19
2022-11-15T05:39:11.819Z,95105.84
2022-11-15T05:41:14.085Z,95108.78
2022-11-15T05:43:15.748Z,95111.38
2022-11-15T05:45:21.285Z,95108.91
2022-11-15T05:47:27.808Z,95114.22
2022-11-15T05:49:33.482Z,95112.69
2022-11-15T05:51:35.337Z,95108.06
2022-11-15T05:53:37.747Z,95113.84
2022-11-15T05:55:40.380Z,95118.34
2022-11-15T05:57:42.243Z,95121.31
2022-11-15T05:59:44.535Z,95118.00
2022-11-15T06:01:46.225Z,95124.03
2022-11-15T06:03:48.020Z,95118.22
2022-11-15T06:05:49.601Z,95117.63
2022-11-15T06:07:51.316Z,95127.50
2022-11-15T06:09:52.991Z,95124.59
2022-11-15T06:11:54.646Z,95126.75
2022-11-15T06:13:57.438Z,95130.53
2022-11-15T06:15:59.540Z,95131.66
2022-11-15T06:18:01.371Z,95138.03
2022-11-15T06:20:03.186Z,95134.38
2022-11-15T06:22:04.904Z,95134.28
2022-11-15T06:24:06.998Z,95141.22
2022-11-15T06:26:08.633Z,95140.16
2022-11-15T06:28:10.259Z,95141.53
2022-11-15T06:30:11.916Z,95131.38
2022-11-15T06:32:13.542Z,95125.50
2022-11-15T06:34:15.396Z,95130.69
2022-11-15T06:36:18.259Z,95124.34
2022-11-15T06:38:20.152Z,95122.47
2022-11-15T06:40:21.874Z,95129.38
2022-11-15T06:42:23.461Z,95130.56
2022-11-15T06:44:25.113Z,95133.84
2022-11-15T06:46:26.868Z,95118.16
2022-11-15T06:48:29.351Z,95120.06
2022-11-15T06:50:31.045Z,95128.09
2022-11-15T06:52:33.648Z,95116.28
2022-11-15T06:54:35.240Z,95119.03
2022-11-15T06:56:36.838Z,95124.00
2022-11-15T06:58:38.695Z,95118.56
2022-11-15T07:00:40.610Z,95114.75
2022-11-15T07:02:42.235Z,95108.53
2022-11-15T07:04:43.923Z,95116.41
2022-11-15T07:06:48.821Z,95120.75
2022-11-15T07:08:50.673Z,95107.84
2022-11-15T07:10:53.039Z,95102.44
2022-11-15T07:12:55.347Z,95106.72
2022-11-15T07:14:57.126Z,95111.94
2022-11-15T07:16:58.825Z,95113.47
2022-11-15T07:19:00.465Z,95104.84
2022-11-15T07:21:07.090Z,95109.00
2022-11-15T07:23:08.724Z,95115.97
2022-11-15T07:25:10.704Z,95117.50
2022-11-15T07:27:12.425Z,95113.00
2022-11-15T07:29:14.404Z,95120.34
2022-11-15T07:31:16.183Z,95114.78
2022-11-15T07:33:17.762Z,95112.03
2022-11-15T07:35:19.389Z,95119.53
2022-11-15T07:37:21.075Z,95116.88
2022-11-15T07:39:22.788Z,95110.47
2022-11-15T07:41:24.500Z,95109.50
2022-11-15T07:43:28.985Z,95108.47
2022-11-15T07:45:30.979Z,95114.00
2022-11-15T07:47:32.616Z,95107.59
2022-11-15T07:49:34.314Z,95111.53
2022-11-15T07:51:35.928Z,95116.66
2022-11-15T07:53:37.576Z,95108.81
2022-11-15T07:55:41.683Z,95108.56
2022-11-15T07:57:43.304Z,95104.78
2022-11-15T07:59:44.903Z,95108.16
2022-11-15T08:01:46.570Z,95110.03
2022-11-15T08:03:48.368Z,95121.03
2022-11-15T08:05:53.327Z,95109.94
2022-11-15T08:07:57.036Z,95116.78
2022-11-15T08:09:59.513Z,95114.06
2022-11-15T08:12:01.446Z,95106.47
2022-11-15T08:14:03.095Z,95106.47
2022-11-15T08:16:06.675Z,95106.50
2022-11-15T08:18:12.764Z,95101.53
2022-11-15T08:20:14.713Z,95108.16
2022-11-15T08:22:16.327Z,95107.34
2022-11-15T08:24:17.921Z,95100.00
2022-11-15T08:26:19.704Z,95098.34
2022-11-15T08:28:22.038Z,95099.19
2022-11-15T08:30:24.983Z,95107.91
2022-11-15T08:32:26.619Z,95097.50
2022-11-15T08:34:28.260Z,95092.28
2022-11-15T08:36:34.783Z,95091.28
2022-11-15T08:38:43.728Z,95090.13
2022-11-15T08:40:45.337Z,95084.19
2022-11-15T08:42:48.019Z,95083.06
2022-11-15T08:44:49.628Z,95086.81
2022-11-15T08:46:51.487Z,95080.59
2022-11-15T08:48:53.073Z,95074.59
2022-11-15T08:50:56.318Z,95081.16
2022-11-15T08:52:58.017Z,95075.38
2022-11-15T08:54:59.683Z,95070.66
2022-11-15T08:57:01.306Z,95076.25
2022-11-15T08:59:02.900Z,95076.69
2022-11-15T09:01:05.554Z,95075.56
2022-11-15T09:03:08.332Z,95071.75
2022-11-15T09:05:09.945Z,95067.69
2022-11-15T09:07:12.507Z,95067.53
2022-11-15T09:09:14.280Z,95058.25
2022-11-15T09:11:17.560Z,95061.06
2022-11-15T09:13:19.222Z,95059.84
2022-11-15T09:15:20.894Z,95054.19
2022-11-15T09:17:25.059Z,95055.53
2022-11-15T09:19:27.195Z,95051.44
2022-11-15T09:21:30.607Z,95048.84
2022-11-15T09:23:32.224Z,95044.44
2022-11-15T09:25:34.140Z,95038.19
2022-11-15T09:29:55.528Z,95038.09
2022-11-15T09:31:57.094Z,95034.97
2022-11-15T09:33:58.988Z,95033.69
2022-11-15T09:36:09.051Z,95033.97
2022-11-15T09:38:10.666Z,95031.38
2022-11-15T09:40:18.554Z,95025.50
2022-11-15T09:42:36.708Z,95018.19
2022-11-15T09:44:51.335Z,95019.97
2022-11-15T09:47:01.946Z,95014.59
2022-11-15T09:49:04.426Z,95008.06
2022-11-15T09:51:10.320Z,95007.97
2022-11-15T09:54:13.607Z,95005.91
2022-11-15T09:56:17.230Z,94996.44
2022-11-15T09:58:37.131Z,95009.09
2022-11-15T10:00:49.727Z,94996.06
2022-11-15T10:03:13.006Z,94986.00
2022-11-15T10:05:19.731Z,94985.47
2022-11-15T10:07:34.321Z,94988.47
2022-11-15T10:10:04.341Z,94983.97
2022-11-15T10:12:07.347Z,94974.88
2022-11-15T10:14:24.777Z,94981.59
2022-11-15T10:16:53.068Z,94972.22
2022-11-15T10:19:15.796Z,94970.00
2022-11-15T10:21:21.462Z,94971.66
2022-11-15T10:23:24.056Z,94967.50
2022-11-15T10:25:28.242Z,94961.47
2022-11-15T10:27:30.579Z,94959.19
2022-11-15T10:29:32.178Z,94958.25
2022-11-15T10:31:33.797Z,94945.94
2022-11-15T10:33:40.051Z,94941.16
2022-11-15T10:35:42.586Z,94936.84
2022-11-15T10:37:44.197Z,94930.66
2022-11-15T10:42:19.820Z,94921.13
2022-11-15T10:44:23.073Z,94925.16
2022-11-15T10:46:45.479Z,94923.63
2022-11-15T10:48:47.402Z,94910.00
2022-11-15T10:50:50.095Z,94909.09
2022-11-15T10:52:51.776Z,94909.38
2022-11-15T10:55:05.790Z,94913.88
2022-11-15T10:57:16.455Z,94908.50
2022-11-15T10:59:38.759Z,94900.41
2022-11-15T11:01:47.441Z,94894.66
2022-11-15T11:04:08.640Z,94889.88
2022-11-15T11:06:18.228Z,94879.09
2022-11-15T11:08:24.717Z,94882.41
2022-11-15T11:10:50.457Z,94884.91
2022-11-15T11:12:48.874Z,94883.88
2022-11-15T11:14:50.471Z,94881.44
2022-11-15T11:16:56.944Z,94873.25
2022-11-15T11:19:24.784Z,94865.91
2022-11-15T11:21:48.068Z,94863.06
2022-11-15T11:23:53.949Z,94867.16
2022-11-15T11:26:26.768Z,94859.44
2022-11-15T11:28:41.673Z,94850.03
2022-11-15T11:31:11.277Z,94845.22
2022-11-15T11:33:23.047Z,94839.94
2022-11-15T11:35:49.088Z,94845.47
2022-11-15T11:38:11.083Z,94836.16
2022-11-15T11:40:40.653Z,94830.97
2022-11-15T11:42:49.209Z,94832.03
2022-11-15T11:45:24.744Z,94824.31
2022-11-15T11:47:34.724Z,94820.47
2022-11-15T11:50:02.012Z,94820.47
2022-11-15T11:52:09.704Z,94806.97
2022-11-15T11:54:20.565Z,94807.34
2022-11-15T11:56:36.511Z,94801.03
2022-11-15T11:58:41.505Z,94802.16
2022-11-15T12:00:53.166Z,94794.13
2022-11-15T12:03:15.720Z,94791.75
2022-11-15T12:05:43.329Z,94790.63
2022-11-15T12:07:46.108Z,94783.91
2022-11-15T12:10:03.215Z,94778.75
2022-11-15T12:12:13.870Z,94775.06
2022-11-15T12:14:53.224Z,94773.91
2022-11-15T12:16:54.858Z,94769.28
2022-11-15T12:19:01.165Z,94769.53
2022-11-15T12:21:28.845Z,94767.03
2022-11-15T12:23:34.165Z,94767.69
2022-11-15T12:25:36.373Z,94760.97
2022-11-15T12:27:51.987Z,94764.34
2022-11-15T12:30:17.787Z,94751.75
2022-11-15T12:32:32.775Z,94751.31
2022-11-15T12:34:41.957Z,94753.28
2022-11-15T12:36:46.546Z,94745.22
2022-11-15T12:38:56.890Z,94751.94
2022-11-15T12:41:18.960Z,94744.03
2022-11-15T12:43:20.602Z,94734.03
2022-11-15T12:45:37.789Z,94735.50
2022-11-15T12:47:39.399Z,94737.00
2022-11-15T12:49:40.946Z,94737.59
2022-11-15T12:51:48.530Z,94740.88
2022-11-15T12:53:50.351Z,94732.25
2022-11-15T12:56:04.162Z,94733.88
2022-11-15T12:58:29.302Z,94732.63
2022-11-15T13:00:40.243Z,94723.50
2022-11-15T13:02:46.481Z,94726.38
2022-11-15T13:04:48.893Z,94723.50
2022-11-15T13:07:08.560Z,94719.00
2022-11-15T13:09:28.729Z,94721.31
2022-11-15T13:12:09.175Z,94721.91
2022-11-15T13:14:36.051Z,94719.94
2022-11-15T13:16:38.197Z,94710.97
2022-11-15T13:18:41.168Z,94707.22
2022-11-15T13:20:45.942Z,94710.59
2022-11-15T13:23:00.585Z,94710.38
2022-11-15T13:25:02.766Z,94701.97
2022-11-15T13:27:13.991Z,94696.13
2022-11-15T13:29:20.383Z,94695.00
2022-11-15T13:31:44.473Z,94697.75
2022-11-15T13:33:46.343Z,94694.66
2022-11-15T13:35:56.328Z,94702.31
2022-11-15T13:38:04.955Z,94697.66
2022-11-15T13:40:31.124Z,94700.22
2022-11-15T13:42:32.916Z,94699.72
2022-11-15T13:44:34.823Z,94696.19
2022-11-15T13:46:36.599Z,94694.47
2022-11-15T13:48:38.415Z,94691.72
2022-11-15T13:50:40.402Z,94691.56
2022-11-15T13:52:44.277Z,94686.66
2022-11-15T13:54:52.093Z,94692.88
2022-11-15T13:57:02.237Z,94694.88
2022-11-15T13:59:11.530Z,94690.31
2022-11-15T14:01:20.777Z,94686.63
2022-11-15T14:03:27.108Z,94679.06
2022-11-15T14:05:28.858Z,94692.53
2022-11-15T14:07:30.960Z,94684.34
2022-11-15T14:09:34.477Z,94693.38
2022-11-15T14:11:36.304Z,94686.81
2022-11-15T14:13:38.002Z,94685.41
2022-11-15T14:15:40.223Z,94692.22
2022-11-15T14:17:47.200Z,94683.13
2022-11-15T14:19:52.271Z,94686.38
2022-11-15T14:22:16.075Z,94677.09
2022-11-15T14:24:22.288Z,94678.09
2022-11-15T14:26:28.669Z,94675.56
2022-11-15T14:28:37.554Z,94678.69
2022-11-15T14:30:44.159Z,94680.94
2022-11-15T14:32:50.465Z,94685.50
2022-11-15T14:35:03.729Z,94680.09
2022-11-15T14:37:05.517Z,94690.97
2022-11-15T14:39:07.220Z,94684.03
2022-11-15T14:41:19.488Z,94685.13
2022-11-15T14:43:21.137Z,94691.38
2022-11-15T14:45:23.246Z,94694.28
2022-11-15T14:47:24.856Z,94686.31
2022-11-15T14:49:26.559Z,94690.09
2022-11-15T14:51:28.182Z,94691.13
2022-11-15T14:53:29.910Z,94694.72
2022-11-15T14:55:37.260Z,94683.34
2022-11-15T14:57:38.957Z,94691.44
2022-11-15T14:59:40.594Z,94686.69
2022-11-15T15:01:42.408Z,94689.19
2022-11-15T15:03:45.188Z,94688.53
2022-11-15T15:05:47.035Z,94690.84
2022-11-15T15:07:49.449Z,94679.16
2022-11-15T15:09:51.213Z,94680.41
2022-11-15T15:11:55.693Z,94678.81
2022-11-15T15:13:59.248Z,94674.44
2022-11-15T15:16:00.878Z,94672.47
2022-11-15T15:18:03.606Z,94676.97
2022-11-15T15:20:05.659Z,94674.06
2022-11-15T15:22:09.681Z,94674.19
2022-11-15T15:24:17.430Z,94671.56
2022-11-15T15:26:19.136Z,94668.59
2022-11-15T15:28:20.831Z,94669.91
2022-11-15T15:30:28.373Z,94663.97
2022-11-15T15:32:30.133Z,94664.44
2022-11-15T15:34:31.921Z,94650.91
2022-11-15T15:36:33.534Z,94652.47
2022-11-15T15:38:35.657Z,94665.78
2022-11-15T15:40:37.458Z,94655.25
2022-11-15T15:42:39.060Z,94657.28
2022-11-15T15:44:40.729Z,94656.81
2022-11-15T15:46:42.334Z,94654.44
2022-11-15T15:48:44.884Z,94657.28
2022-11-15T15:50:46.576Z,94650.69
2022-11-15T15:52:48.454Z,94650.25
2022-11-15T15:54:50.165Z,94643.91
2022-11-15T15:56:56.085Z,94646.22
2022-11-15T15:58:58.002Z,94644.59
2022-11-15T16:00:59.779Z,94641.31
2022-11-15T16:03:01.806Z,94658.09
2022-11-15T16:05:03.868Z,94649.88
2022-11-15T16:07:05.558Z,94649.53
2022-11-15T16:09:15.023Z,94657.88
2022-11-15T16:11:18.027Z,94651.53
2022-11-15T16:13:19.743Z,94657.28
2022-11-15T16:15:22.682Z,94655.69
2022-11-15T16:17:32.851Z,94654.72
2022-11-15T16:19:35.734Z,94659.00
2022-11-15T16:21:37.536Z,94667.53
2022-11-15T16:23:40.193Z,94662.88
2022-11-15T16:25:43.201Z,94664.53
2022-11-15T16:27:46.071Z,94668.09
2022-11-15T16:29:48.344Z,94674.34
2022-11-15T16:31:49.992Z,94676.41
2022-11-15T16:33:51.639Z,94674.72
2022-11-15T16:35:53.280Z,94670.28
2022-11-15T16:37:55.182Z,94669.44
2022-11-15T16:40:00.818Z,94668.09
2022-11-15T16:42:03.552Z,94666.50
2022-11-15T16:44:05.161Z,94664.81
2022-11-15T16:46:20.355Z,94657.88
2022-11-15T16:48:28.439Z,94662.91
2022-11-15T16:50:32.891Z,94650.28
2022-11-15T16:52:34.558Z,94647.88
2022-11-15T16:54:38.540Z,94649.72
2022-11-15T16:56:40.636Z,94647.63
2022-11-15T16:58:53.103Z,94649.63
2022-11-15T17:00:58.872Z,94643.81
2022-11-15T17:03:00.523Z,94636.22
2022-11-15T17:05:07.058Z,94637.44
2022-11-15T17:07:11.674Z,94631.66
2022-11-15T17:09:24.493Z,94633.28
2022-11-15T17:11:26.221Z,94631.66
2022-11-15T17:13:27.889Z,94630.00
2022-11-15T17:15:29.548Z,94626.31
2022-11-15T17:17:31.831Z,94628.59
2022-11-15T17:19:33.612Z,94626.13
2022-11-15T17:21:35.165Z,94625.47
2022-11-15T17:23:36.906Z,94631.22
2022-11-15T17:25:38.578Z,94626.69
2022-11-15T17:27:40.707Z,94625.41
2022-11-15T17:29:42.727Z,94631.44
2022-11-15T17:31:44.702Z,94627.88
2022-11-15T17:33:46.289Z,94621.00
2022-11-15T17:35:58.398Z,94621.31
2022-11-15T17:38:00.019Z,94628.16
2022-11-15T17:40:01.711Z,94630.63
2022-11-15T17:42:03.366Z,94622.19
2022-11-15T17:44:05.193Z,94618.13
2022-11-15T17:46:13.255Z,94614.25
2022-11-15T17:48:14.973Z,94624.28
2022-11-15T17:50:18.051Z,94623.03
2022-11-15T17:52:19.948Z,94626.31
2022-11-15T17:54:21.664Z,94622.72
2022-11-15T17:56:24.820Z,94625.84
2022-11-15T17:58:26.576Z,94621.63
2022-11-15T18:00:28.239Z,94623.34
2022-11-15T18:02:30.556Z,94620.16
2022-11-15T18:04:32.299Z,94623.13
2022-11-15T18:06:35.149Z,94621.78
2022-11-15T18:08:37.811Z,94623.22
2022-11-15T18:10:39.626Z,94624.03
2022-11-15T18:12:41.243Z,94614.13
2022-11-15T18:14:43.073Z,94607.34
2022-11-15T18:16:44.810Z,94605.41
2022-11-15T18:18:46.609Z,94606.84
2022-11-15T18:20:48.201Z,94604.31
2022-11-15T18:22:53.218Z,94604.28
2022-11-15T18:24:54.975Z,94599.44
2022-11-15T18:26:57.958Z,94594.09
2022-11-15T18:29:04.577Z,94592.97
2022-11-15T18:31:16.844Z,94592.97
2022-11-15T18:33:19.624Z,94592.66
2022-11-15T18:35:21.273Z,94586.84
2022-11-15T18:37:22.988Z,94596.47
2022-11-15T18:39:24.656Z,94601.69
2022-11-15T18:41:29.871Z,94600.66
2022-11-15T18:43:31.828Z,94608.63
2022-11-15T18:45:36.556Z,94602.88
2022-11-15T18:47:38.181Z,94595.72
2022-11-15T18:49:39.897Z,94598.31
2022-11-15T18:51:44.401Z,94594.75
2022-11-15T18:53:46.405Z,94593.50
2022-11-15T18:55:48.004Z,94591.84
2022-11-15T18:57:49.579Z,94592.44
2022-11-15T18:59:51.276Z,94594.75
2022-11-15T19:01:53.049Z,94590.72
2022-11-15T19:03:56.909Z,94584.69
2022-11-15T19:06:29.039Z,94583.06
2022-11-15T19:08:42.109Z,94581.94
2022-11-15T19:10:43.751Z,94585.22
2022-11-15T19:12:47.216Z,94582.63
2022-11-15T19:14:48.931Z,94582.44
2022-11-15T19:16:52.450Z,94588.50
2022-11-15T19:18:58.873Z,94576.41
2022-11-15T19:21:04.636Z,94577.00
2022-11-15T19:23:06.492Z,94582.09
2022-11-15T19:25:08.821Z,94574.13
2022-11-15T19:27:10.509Z,94576.41
2022-11-15T19:29:12.297Z,94575.59
2022-11-15T19:31:15.439Z,94568.38
2022-11-15T19:33:17.254Z,94568.38
2022-11-15T19:35:18.954Z,94568.50
2022-11-15T19:37:20.563Z,94562.47
2022-11-15T19:39:22.382Z,94565.06
2022-11-15T19:41:25.254Z,94562.88
2022-11-15T19:43:27.325Z,94559.41
2022-11-15T19:45:29.041Z,94558.47
2022-11-15T19:47:30.730Z,94563.59
2022-11-15T19:49:32.421Z,94560.31
2022-11-15T19:51:34.121Z,94561.78
2022-11-15T19:53:36.737Z,94570.75
2022-11-15T19:55:38.644Z,94576.63
2022-11-15T19:57:40.260Z,94581.06
2022-11-15T19:59:41.888Z,94577.44
2022-11-15T20:01:43.744Z,94584.66
2022-11-15T20:03:46.040Z,94580.78
2022-11-15T20:05:47.751Z,94580.53
2022-11-15T20:07:49.472Z,94583.28
2022-11-15T20:09:51.066Z,94590.94
2022-11-15T20:11:52.879Z,94595.44
2022-11-15T20:13:59.019Z,94605.31
2022-11-15T20:16:00.799Z,94604.78
2022-11-15T20:18:02.513Z,94600.00
2022-11-15T20:20:04.703Z,94593.69
2022-11-15T20:22:06.252Z,94592.31
2022-11-15T20:24:08.380Z,94595.31
2022-11-15T20:26:10.756Z,94595.31
2022-11-15T20:28:26.343Z,94588.25
2022-11-15T20:30:28.000Z,94588.69
2022-11-15T20:32:31.172Z,94583.03
2022-11-15T20:34:32.832Z,94588.63
2022-11-15T20:36:34.499Z,94573.66
2022-11-15T20:38:36.399Z,94569.13
2022-11-15T20:40:39.368Z,94575.56
2022-11-15T20:42:41.187Z,94573.78
2022-11-15T20:44:42.748Z,94573.34
2022-11-15T20:46:44.491Z,94563.75
2022-11-15T20:48:46.140Z,94561.28
2022-11-15T20:50:48.019Z,94559.19
2022-11-15T20:52:49.723Z,94557.13
2022-11-15T20:54:51.402Z,94551.50
2022-11-15T20:56:53.070Z,94552.59
2022-11-15T20:58:56.504Z,94550.66
2022-11-15T21:00:58.367Z,94551.22
2022-11-15T21:03:00.039Z,94538.00
2022-11-15T21:05:02.305Z,94552.16
2022-11-15T21:07:04.502Z,94542.72
2022-11-15T21:09:24.845Z,94535.41
2022-11-15T21:11:44.876Z,94532.28
2022-11-15T21:13:46.521Z,94535.16
2022-11-15T21:15:48.557Z,94529.94
2022-11-15T21:17:50.232Z,94529.00
2022-11-15T21:19:51.951Z,94526.22
2022-11-15T21:21:53.696Z,94519.38
2022-11-15T21:23:55.249Z,94518.41
2022-11-15T21:25:56.996Z,94520.19
2022-11-15T21:27:58.650Z,94509.78
2022-11-15T21:30:00.339Z,94507.94
2022-11-15T21:32:06.837Z,94511.22
2022-11-15T21:34:08.811Z,94504.34
2022-11-15T21:36:10.426Z,94506.94
2022-11-15T21:38:12.113Z,94508.06
2022-11-15T21:40:13.791Z,94507.94
2022-11-15T21:42:15.413Z,94501.09
2022-11-15T21:44:17.197Z,94495.72
2022-11-15T21:46:18.827Z,94498.19
2022-11-15T21:48:20.557Z,94494.59
2022-11-15T21:50:22.530Z,94497.75
2022-11-15T21:52:28.483Z,94496.91
2022-11-15T21:54:30.112Z,94504.44
2022-11-15T21:56:32.441Z,94487.97
2022-11-15T21:58:34.810Z,94489.09
2022-11-15T22:00:55.453Z,94485.50
2022-11-15T22:02:57.138Z,94486.78
2022-11-15T22:04:58.961Z,94482.22
2022-11-15T22:07:00.589Z,94481.41
2022-11-15T22:09:03.127Z,94483.22
2022-11-15T22:11:04.855Z,94486.78
2022-11-15T22:13:06.539Z,94479.25
2022-11-15T22:15:08.420Z,94481.50
2022-11-15T22:17:13.205Z,94477.63
2022-11-15T22:19:15.105Z,94482.09
2022-11-15T22:21:17.940Z,94476.97
2022-11-15T22:23:19.703Z,94477.28
2022-11-15T22:25:21.396Z,94469.34
2022-11-15T22:27:23.105Z,94469.06
2022-11-15T22:29:24.809Z,94465.66
2022-11-15T22:31:26.624Z,94465.69
2022-11-15T22:33:30.092Z,94463.34
2022-11-15T22:35:31.873Z,94452.34
2022-11-15T22:37:33.648Z,94444.66
2022-11-15T22:39:35.335Z,94442.94
2022-11-15T22:41:37.102Z,94442.63
2022-11-15T22:43:38.742Z,94440.44
2022-11-15T22:45:50.475Z,94450.25
2022-11-15T22:47:52.257Z,94431.28
2022-11-15T22:49:53.954Z,94432.50
2022-11-15T22:51:55.634Z,94445.09
2022-11-15T22:53:57.576Z,94435.81
2022-11-15T22:56:01.236Z,94434.88
2022-11-15T22:58:02.930Z,94441.72
2022-11-15T23:00:11.242Z,94431.72
2022-11-15T23:02:12.916Z,94440.53
2022-11-15T23:04:14.701Z,94444.94
2022-11-15T23:06:16.854Z,94437.53
2022-11-15T23:08:19.468Z,94431.75
2022-11-15T23:10:39.677Z,94436.56
2022-11-15T23:13:00.113Z,94439.09
2022-11-15T23:15:01.930Z,94420.41
2022-11-15T23:17:03.873Z,94424.06
2022-11-15T23:19:08.468Z,94430.34
2022-11-15T23:21:14.110Z,94420.31
2022-11-15T23:23:15.749Z,94402.59
2022-11-15T23:25:17.502Z,94406.63
2022-11-15T23:27:20.819Z,94407.34
2022-11-15T23:29:24.941Z,94417.66
2022-11-15T23:31:45.438Z,94415.53
2022-11-15T23:33:59.060Z,94400.84
2022-11-15T23:36:00.849Z,94400.41
2022-11-15T23:38:02.557Z,94399.84
2022-11-15T23:40:05.354Z,94402.88
2022-11-15T23:42:09.296Z,94405.84
2022-11-15T23:44:11.481Z,94402.00
2022-11-15T23:46:13.305Z,94403.13
2022-11-15T23:48:14.982Z,94387.38
2022-11-15T23:50:17.183Z,94399.28
2022-11-15T23:52:19.003Z,94392.78
2022-11-15T23:54:20.831Z,94387.59
2022-11-15T23:56:23.008Z,94387.31
2022-11-15T23:58:24.703Z,94383.94
